Etusivu
METAR-TAF:

METAR-TAF

Lentoasemat :

Rabat, Marokko

Leveyspiiri: 34-03N, Pituuspiiri: 006-46W, korkeus merenpinnasta: 84 m

Tämänhetkinen sää

Tämä raportti tehtiin 25 minuuttia sitten, kello 21.00 UTC
Tuuli 5 kn lännestä/lounaasta
Lämpötila 23°C
Kosteus 89%
Ilmanpaine 1016 hPa
Näkyvyys: 8000 m

METAR: GMME 172100Z 24005KT 8000 NSC 23/21 Q1016 NOSIG

Aika: 22:25 (21:25 UTC)

Sääennuste

Tämä raportti tehtiin 4 tuntia ja 25 minuuttia sitten, kello 17.00 UTC
Ennuste voimassa 17. päivästä klo 18 UTC - 18. päivään klo 24 UTC
Tuuli 8 kn lounaasta
Näkyvyys: 6000 m
Hajanaisia pilviä 1600 ft:n korkeudessa
Ajoittain
18. päivästä klo 00 UTC - 18. päivään klo 08 UTC
Tuuli 3 kn eri suunnista
Näkyvyys: 3000 m
Hajonneita pilviä 1200 ft:n korkeudessa
utua
Tulossa
18. päivästä klo 08 UTC - 18. päivään klo 12 UTC
Tuuli 8 kn lounaasta
Näkyvyys: 8000 m

TAF: GMME 171700Z 1718/1824 22008KT 6000 SCT016 TEMPO 1800/1808 VRB03KT 3000 BR BKN012 BECMG 1808/1812 22008KT 8000 NSC

Säähavainnot ja -ennusteet yli 4000 lentoasemalta (METAR- ja TAF-raportit).

Käytössä olevat sääasemat on merkitty karttaan keltaisilla ja punaisilla pisteillä.

Aseta hiiri pisteen päälle nähdäksesi sääaseman nimen.

Klikkaa sitten nähdäksesi säähavainnot ja -ennusteet.

Kartan vaihtaminen: klikkaa mustalla rastilla varustettuja vihreitä pisteitä, niin voit zoomata sisään; viivalla varustettua vihreää pistettä, niin voit zoomata ulos tai vihreitä nuolia, niin pääset viereisille kartoille.


METAR-TAF: